sensor_id;sensor_type;location;lat;lon;timestamp;P1;durP1;ratioP1;P2;durP2;ratioP2
12812;SDS011;6471;50.932;6.934;2023-04-25T02:09:58;8.83;;;3.60;;
12812;SDS011;6471;50.932;6.934;2023-04-25T02:12:45;10.27;;;3.73;;
12812;SDS011;6471;50.932;6.934;2023-04-25T02:30:30;6.47;;;3.67;;
12812;SDS011;6471;50.932;6.934;2023-04-25T02:59:55;10.13;;;3.80;;
12812;SDS011;6471;50.932;6.934;2023-04-25T03:15:12;7.53;;;3.00;;
12812;SDS011;6471;50.932;6.934;2023-04-25T03:17:38;7.17;;;3.63;;
12812;SDS011;6471;50.932;6.934;2023-04-25T03:23:16;7.77;;;3.63;;
12812;SDS011;6471;50.932;6.934;2023-04-25T03:26:13;8.63;;;3.57;;
12812;SDS011;6471;50.932;6.934;2023-04-25T03:29:05;6.00;;;3.07;;
12812;SDS011;6471;50.932;6.934;2023-04-25T03:38:13;8.03;;;3.70;;
12812;SDS011;6471;50.932;6.934;2023-04-25T03:46:45;6.40;;;2.90;;
12812;SDS011;6471;50.932;6.934;2023-04-25T04:10:57;8.83;;;4.30;;
12812;SDS011;6471;50.932;6.934;2023-04-25T06:03:29;9.63;;;3.60;;
12812;SDS011;6471;50.932;6.934;2023-04-25T06:15:40;9.47;;;3.33;;
12812;SDS011;6471;50.932;6.934;2023-04-25T06:18:06;8.03;;;3.33;;
12812;SDS011;6471;50.932;6.934;2023-04-25T06:20:32;8.63;;;2.63;;
12812;SDS011;6471;50.932;6.934;2023-04-25T06:22:58;6.87;;;3.07;;
12812;SDS011;6471;50.932;6.934;2023-04-25T06:25:24;6.97;;;3.13;;
12812;SDS011;6471;50.932;6.934;2023-04-25T06:27:50;8.03;;;3.10;;
12812;SDS011;6471;50.932;6.934;2023-04-25T06:30:16;12.27;;;4.13;;
12812;SDS011;6471;50.932;6.934;2023-04-25T06:32:47;10.03;;;3.80;;
12812;SDS011;6471;50.932;6.934;2023-04-25T06:35:13;8.40;;;3.67;;
12812;SDS011;6471;50.932;6.934;2023-04-25T06:37:42;8.23;;;3.13;;
12812;SDS011;6471;50.932;6.934;2023-04-25T06:40:08;10.00;;;3.50;;
12812;SDS011;6471;50.932;6.934;2023-04-25T06:43:03;8.10;;;3.90;;
12812;SDS011;6471;50.932;6.934;2023-04-25T06:45:49;11.43;;;3.70;;
12812;SDS011;6471;50.932;6.934;2023-04-25T07:42:31;10.07;;;2.63;;
12812;SDS011;6471;50.932;6.934;2023-04-25T07:45:13;7.40;;;2.77;;
12812;SDS011;6471;50.932;6.934;2023-04-25T07:47:41;10.90;;;3.30;;
12812;SDS011;6471;50.932;6.934;2023-04-25T07:50:10;9.00;;;2.87;;
12812;SDS011;6471;50.932;6.934;2023-04-25T07:52:38;7.20;;;2.70;;
12812;SDS011;6471;50.932;6.934;2023-04-25T07:55:05;9.73;;;3.00;;
12812;SDS011;6471;50.932;6.934;2023-04-25T07:57:43;5.63;;;2.30;;
12812;SDS011;6471;50.932;6.934;2023-04-25T08:00:09;4.20;;;2.50;;
12812;SDS011;6471;50.932;6.934;2023-04-25T08:02:36;8.77;;;3.37;;
12812;SDS011;6471;50.932;6.934;2023-04-25T08:05:05;7.20;;;3.07;;
12812;SDS011;6471;50.932;6.934;2023-04-25T08:07:37;6.40;;;2.87;;
12812;SDS011;6471;50.932;6.934;2023-04-25T08:10:04;10.07;;;2.80;;
12812;SDS011;6471;50.932;6.934;2023-04-25T08:12:31;5.97;;;2.60;;
12812;SDS011;6471;50.932;6.934;2023-04-25T08:14:57;8.87;;;3.00;;
12812;SDS011;6471;50.932;6.934;2023-04-25T08:17:23;7.00;;;2.90;;
12812;SDS011;6471;50.932;6.934;2023-04-25T08:19:49;7.73;;;2.80;;
12812;SDS011;6471;50.932;6.934;2023-04-25T08:22:15;6.67;;;2.40;;
12812;SDS011;6471;50.932;6.934;2023-04-25T08:24:41;9.40;;;2.70;;
12812;SDS011;6471;50.932;6.934;2023-04-25T08:27:07;5.57;;;2.40;;
12812;SDS011;6471;50.932;6.934;2023-04-25T08:29:34;7.00;;;2.53;;
12812;SDS011;6471;50.932;6.934;2023-04-25T08:32:00;6.13;;;2.03;;
12812;SDS011;6471;50.932;6.934;2023-04-25T08:34:26;4.30;;;2.40;;
12812;SDS011;6471;50.932;6.934;2023-04-25T08:36:52;6.40;;;2.40;;
12812;SDS011;6471;50.932;6.934;2023-04-25T08:39:18;7.40;;;2.37;;
12812;SDS011;6471;50.932;6.934;2023-04-25T08:41:45;5.83;;;2.33;;
12812;SDS011;6471;50.932;6.934;2023-04-25T08:44:14;6.37;;;2.80;;
12812;SDS011;6471;50.932;6.934;2023-04-25T08:46:40;7.40;;;2.77;;
12812;SDS011;6471;50.932;6.934;2023-04-25T08:49:07;4.47;;;2.30;;
12812;SDS011;6471;50.932;6.934;2023-04-25T08:51:38;4.80;;;2.30;;
12812;SDS011;6471;50.932;6.934;2023-04-25T08:54:11;3.77;;;1.90;;
12812;SDS011;6471;50.932;6.934;2023-04-25T08:56:44;7.27;;;2.40;;
12812;SDS011;6471;50.932;6.934;2023-04-25T08:59:13;7.30;;;2.20;;
12812;SDS011;6471;50.932;6.934;2023-04-25T09:01:40;7.17;;;2.20;;
12812;SDS011;6471;50.932;6.934;2023-04-25T09:04:06;5.07;;;2.10;;
12812;SDS011;6471;50.932;6.934;2023-04-25T09:06:32;8.33;;;2.40;;
12812;SDS011;6471;50.932;6.934;2023-04-25T09:09:06;7.43;;;2.20;;
12812;SDS011;6471;50.932;6.934;2023-04-25T09:11:32;5.63;;;2.10;;
12812;SDS011;6471;50.932;6.934;2023-04-25T09:14:14;6.47;;;1.93;;
12812;SDS011;6471;50.932;6.934;2023-04-25T09:19:22;9.67;;;2.40;;
12812;SDS011;6471;50.932;6.934;2023-04-25T09:21:49;5.17;;;2.10;;
12812;SDS011;6471;50.932;6.934;2023-04-25T09:24:15;6.27;;;2.33;;
12812;SDS011;6471;50.932;6.934;2023-04-25T09:26:41;5.37;;;1.90;;
12812;SDS011;6471;50.932;6.934;2023-04-25T09:29:08;5.90;;;1.73;;
12812;SDS011;6471;50.932;6.934;2023-04-25T09:31:35;5.00;;;2.00;;
12812;SDS011;6471;50.932;6.934;2023-04-25T09:34:02;5.63;;;1.97;;
12812;SDS011;6471;50.932;6.934;2023-04-25T09:36:29;5.20;;;2.00;;
12812;SDS011;6471;50.932;6.934;2023-04-25T09:38:55;3.33;;;1.77;;
12812;SDS011;6471;50.932;6.934;2023-04-25T09:41:24;5.47;;;1.87;;
12812;SDS011;6471;50.932;6.934;2023-04-25T09:43:51;4.57;;;1.93;;
12812;SDS011;6471;50.932;6.934;2023-04-25T09:46:17;5.60;;;2.50;;
12812;SDS011;6471;50.932;6.934;2023-04-25T09:48:51;4.00;;;1.70;;
12812;SDS011;6471;50.932;6.934;2023-04-25T09:51:18;5.23;;;1.90;;
12812;SDS011;6471;50.932;6.934;2023-04-25T09:53:46;5.03;;;2.17;;
12812;SDS011;6471;50.932;6.934;2023-04-25T09:56:18;6.23;;;2.00;;
12812;SDS011;6471;50.932;6.934;2023-04-25T09:58:45;4.77;;;2.00;;
12812;SDS011;6471;50.932;6.934;2023-04-25T10:01:12;5.70;;;2.03;;
12812;SDS011;6471;50.932;6.934;2023-04-25T10:03:39;5.77;;;2.00;;
12812;SDS011;6471;50.932;6.934;2023-04-25T10:06:13;6.00;;;2.20;;
12812;SDS011;6471;50.932;6.934;2023-04-25T10:08:40;5.93;;;2.37;;
12812;SDS011;6471;50.932;6.934;2023-04-25T10:11:07;5.37;;;2.17;;
12812;SDS011;6471;50.932;6.934;2023-04-25T10:13:34;8.40;;;2.23;;
12812;SDS011;6471;50.932;6.934;2023-04-25T10:16:01;6.80;;;2.20;;
12812;SDS011;6471;50.932;6.934;2023-04-25T10:18:28;6.57;;;2.00;;
12812;SDS011;6471;50.932;6.934;2023-04-25T10:20:55;6.20;;;2.50;;
12812;SDS011;6471;50.932;6.934;2023-04-25T10:23:22;5.53;;;2.00;;
12812;SDS011;6471;50.932;6.934;2023-04-25T10:25:49;4.93;;;2.00;;
12812;SDS011;6471;50.932;6.934;2023-04-25T10:28:16;9.37;;;2.13;;
12812;SDS011;6471;50.932;6.934;2023-04-25T10:33:37;4.47;;;2.00;;
12812;SDS011;6471;50.932;6.934;2023-04-25T10:38:36;5.03;;;1.90;;
12812;SDS011;6471;50.932;6.934;2023-04-25T10:41:05;4.23;;;1.93;;
12812;SDS011;6471;50.932;6.934;2023-04-25T10:43:43;3.93;;;1.73;;
12812;SDS011;6471;50.932;6.934;2023-04-25T10:48:43;4.07;;;2.10;;
12812;SDS011;6471;50.932;6.934;2023-04-25T10:51:12;6.00;;;2.30;;
12812;SDS011;6471;50.932;6.934;2023-04-25T10:53:41;6.47;;;1.87;;
12812;SDS011;6471;50.932;6.934;2023-04-25T10:56:11;5.37;;;2.20;;
12812;SDS011;6471;50.932;6.934;2023-04-25T10:58:41;4.10;;;1.83;;
12812;SDS011;6471;50.932;6.934;2023-04-25T11:01:07;6.87;;;2.20;;
12812;SDS011;6471;50.932;6.934;2023-04-25T11:03:38;4.43;;;1.90;;
12812;SDS011;6471;50.932;6.934;2023-04-25T11:06:04;6.80;;;2.27;;
12812;SDS011;6471;50.932;6.934;2023-04-25T11:08:37;4.67;;;2.50;;
12812;SDS011;6471;50.932;6.934;2023-04-25T11:11:08;3.47;;;1.83;;
12812;SDS011;6471;50.932;6.934;2023-04-25T11:13:34;3.77;;;1.60;;
12812;SDS011;6471;50.932;6.934;2023-04-25T11:16:00;4.43;;;1.77;;
12812;SDS011;6471;50.932;6.934;2023-04-25T11:18:27;3.70;;;1.70;;
12812;SDS011;6471;50.932;6.934;2023-04-25T11:20:53;5.10;;;2.00;;
12812;SDS011;6471;50.932;6.934;2023-04-25T11:23:19;3.00;;;1.60;;
12812;SDS011;6471;50.932;6.934;2023-04-25T11:25:45;3.60;;;1.50;;
12812;SDS011;6471;50.932;6.934;2023-04-25T11:28:11;3.43;;;1.40;;
12812;SDS011;6471;50.932;6.934;2023-04-25T11:30:37;3.53;;;1.77;;
12812;SDS011;6471;50.932;6.934;2023-04-25T11:33:11;5.70;;;1.67;;
12812;SDS011;6471;50.932;6.934;2023-04-25T11:35:39;3.20;;;1.60;;
12812;SDS011;6471;50.932;6.934;2023-04-25T11:38:05;4.50;;;1.60;;
12812;SDS011;6471;50.932;6.934;2023-04-25T11:40:32;5.40;;;2.50;;
12812;SDS011;6471;50.932;6.934;2023-04-25T11:43:07;3.27;;;1.80;;
12812;SDS011;6471;50.932;6.934;2023-04-25T11:45:36;3.27;;;1.50;;
12812;SDS011;6471;50.932;6.934;2023-04-25T11:48:02;4.37;;;1.80;;
12812;SDS011;6471;50.932;6.934;2023-04-25T11:50:28;3.80;;;1.60;;
12812;SDS011;6471;50.932;6.934;2023-04-25T11:52:56;4.70;;;2.07;;
12812;SDS011;6471;50.932;6.934;2023-04-25T11:55:22;6.17;;;2.00;;
12812;SDS011;6471;50.932;6.934;2023-04-25T11:57:48;4.83;;;2.00;;
12812;SDS011;6471;50.932;6.934;2023-04-25T12:00:16;4.03;;;1.40;;
12812;SDS011;6471;50.932;6.934;2023-04-25T12:02:47;5.27;;;1.60;;
12812;SDS011;6471;50.932;6.934;2023-04-25T12:05:14;6.00;;;1.97;;
12812;SDS011;6471;50.932;6.934;2023-04-25T12:07:41;3.13;;;1.60;;
12812;SDS011;6471;50.932;6.934;2023-04-25T12:10:20;2.30;;;1.33;;
12812;SDS011;6471;50.932;6.934;2023-04-25T12:12:46;4.97;;;1.97;;
12812;SDS011;6471;50.932;6.934;2023-04-25T12:20:23;3.67;;;1.60;;
12812;SDS011;6471;50.932;6.934;2023-04-25T12:22:50;2.37;;;1.40;;
12812;SDS011;6471;50.932;6.934;2023-04-25T12:28:22;3.10;;;1.33;;
12812;SDS011;6471;50.932;6.934;2023-04-25T12:31:05;4.10;;;1.50;;
12812;SDS011;6471;50.932;6.934;2023-04-25T12:36:23;4.00;;;1.70;;
12812;SDS011;6471;50.932;6.934;2023-04-25T12:38:50;3.30;;;1.60;;
12812;SDS011;6471;50.932;6.934;2023-04-25T12:41:17;4.20;;;1.97;;
12812;SDS011;6471;50.932;6.934;2023-04-25T12:43:52;3.73;;;1.77;;
12812;SDS011;6471;50.932;6.934;2023-04-25T12:46:24;4.40;;;1.87;;
12812;SDS011;6471;50.932;6.934;2023-04-25T12:48:50;5.13;;;1.70;;
12812;SDS011;6471;50.932;6.934;2023-04-25T12:51:16;2.53;;;1.50;;
12812;SDS011;6471;50.932;6.934;2023-04-25T12:54:01;3.60;;;1.90;;
12812;SDS011;6471;50.932;6.934;2023-04-25T12:56:37;3.40;;;1.70;;
12812;SDS011;6471;50.932;6.934;2023-04-25T12:59:03;4.57;;;1.90;;
12812;SDS011;6471;50.932;6.934;2023-04-25T13:01:37;5.07;;;1.80;;
12812;SDS011;6471;50.932;6.934;2023-04-25T13:04:09;6.33;;;1.90;;
12812;SDS011;6471;50.932;6.934;2023-04-25T13:06:41;5.00;;;1.90;;
12812;SDS011;6471;50.932;6.934;2023-04-25T13:09:07;5.03;;;1.70;;
12812;SDS011;6471;50.932;6.934;2023-04-25T13:11:36;3.90;;;1.80;;
12812;SDS011;6471;50.932;6.934;2023-04-25T13:14:02;4.30;;;2.13;;
12812;SDS011;6471;50.932;6.934;2023-04-25T13:16:29;4.07;;;1.70;;
12812;SDS011;6471;50.932;6.934;2023-04-25T13:18:58;3.77;;;1.80;;
12812;SDS011;6471;50.932;6.934;2023-04-25T13:21:30;3.83;;;1.60;;
12812;SDS011;6471;50.932;6.934;2023-04-25T13:23:57;3.03;;;1.43;;
12812;SDS011;6471;50.932;6.934;2023-04-25T13:26:26;2.83;;;1.30;;
12812;SDS011;6471;50.932;6.934;2023-04-25T13:32:01;2.80;;;1.43;;
12812;SDS011;6471;50.932;6.934;2023-04-25T13:34:28;2.53;;;1.50;;
12812;SDS011;6471;50.932;6.934;2023-04-25T13:36:57;4.20;;;1.60;;
12812;SDS011;6471;50.932;6.934;2023-04-25T13:39:23;3.60;;;1.80;;
12812;SDS011;6471;50.932;6.934;2023-04-25T13:41:52;5.03;;;1.70;;
12812;SDS011;6471;50.932;6.934;2023-04-25T13:44:21;5.00;;;1.63;;
12812;SDS011;6471;50.932;6.934;2023-04-25T13:46:48;3.23;;;1.30;;
12812;SDS011;6471;50.932;6.934;2023-04-25T13:49:17;3.50;;;1.27;;
12812;SDS011;6471;50.932;6.934;2023-04-25T13:51:43;1.83;;;1.10;;
12812;SDS011;6471;50.932;6.934;2023-04-25T13:54:09;2.50;;;1.50;;
12812;SDS011;6471;50.932;6.934;2023-04-25T13:56:35;2.23;;;1.50;;
12812;SDS011;6471;50.932;6.934;2023-04-25T13:59:11;2.13;;;1.27;;
12812;SDS011;6471;50.932;6.934;2023-04-25T14:01:37;3.00;;;1.50;;
12812;SDS011;6471;50.932;6.934;2023-04-25T14:04:03;3.10;;;1.43;;
12812;SDS011;6471;50.932;6.934;2023-04-25T14:06:30;2.20;;;1.50;;
12812;SDS011;6471;50.932;6.934;2023-04-25T14:09:07;2.00;;;1.10;;
12812;SDS011;6471;50.932;6.934;2023-04-25T14:11:59;2.43;;;1.20;;
12812;SDS011;6471;50.932;6.934;2023-04-25T14:14:27;4.97;;;1.50;;
12812;SDS011;6471;50.932;6.934;2023-04-25T14:16:53;1.30;;;1.00;;
12812;SDS011;6471;50.932;6.934;2023-04-25T14:19:22;1.80;;;1.20;;
12812;SDS011;6471;50.932;6.934;2023-04-25T14:21:48;3.53;;;1.60;;
12812;SDS011;6471;50.932;6.934;2023-04-25T14:24:14;5.23;;;1.40;;
12812;SDS011;6471;50.932;6.934;2023-04-25T14:26:50;1.80;;;1.40;;
12812;SDS011;6471;50.932;6.934;2023-04-25T14:29:16;4.20;;;1.60;;
12812;SDS011;6471;50.932;6.934;2023-04-25T14:31:42;1.83;;;1.30;;
12812;SDS011;6471;50.932;6.934;2023-04-25T14:34:08;3.40;;;1.30;;
12812;SDS011;6471;50.932;6.934;2023-04-25T14:36:35;3.57;;;1.50;;
12812;SDS011;6471;50.932;6.934;2023-04-25T14:39:01;2.77;;;1.50;;
12812;SDS011;6471;50.932;6.934;2023-04-25T14:41:28;3.90;;;1.20;;
12812;SDS011;6471;50.932;6.934;2023-04-25T14:43:54;3.77;;;1.30;;
12812;SDS011;6471;50.932;6.934;2023-04-25T14:46:21;1.57;;;1.10;;
12812;SDS011;6471;50.932;6.934;2023-04-25T14:48:48;2.13;;;1.10;;
12812;SDS011;6471;50.932;6.934;2023-04-25T14:51:14;3.40;;;1.47;;
12812;SDS011;6471;50.932;6.934;2023-04-25T14:53:43;3.23;;;1.20;;
12812;SDS011;6471;50.932;6.934;2023-04-25T14:56:12;3.23;;;1.30;;
12812;SDS011;6471;50.932;6.934;2023-04-25T14:58:38;2.57;;;1.37;;
12812;SDS011;6471;50.932;6.934;2023-04-25T15:01:05;2.53;;;1.40;;
12812;SDS011;6471;50.932;6.934;2023-04-25T15:03:32;2.63;;;1.47;;
12812;SDS011;6471;50.932;6.934;2023-04-25T15:05:58;3.20;;;1.43;;
12812;SDS011;6471;50.932;6.934;2023-04-25T15:08:24;3.37;;;1.40;;
12812;SDS011;6471;50.932;6.934;2023-04-25T15:10:50;2.17;;;1.30;;
12812;SDS011;6471;50.932;6.934;2023-04-25T15:13:17;4.47;;;1.70;;
12812;SDS011;6471;50.932;6.934;2023-04-25T15:15:44;3.93;;;1.40;;
12812;SDS011;6471;50.932;6.934;2023-04-25T15:21:27;5.00;;;1.60;;
12812;SDS011;6471;50.932;6.934;2023-04-25T17:41:12;2.63;;;1.60;;
12812;SDS011;6471;50.932;6.934;2023-04-25T17:44:19;5.80;;;1.67;;
12812;SDS011;6471;50.932;6.934;2023-04-25T17:50:53;2.63;;;1.53;;
12812;SDS011;6471;50.932;6.934;2023-04-25T17:53:23;3.93;;;1.80;;
12812;SDS011;6471;50.932;6.934;2023-04-25T17:55:53;2.90;;;1.50;;
12812;SDS011;6471;50.932;6.934;2023-04-25T17:58:20;4.27;;;1.60;;
12812;SDS011;6471;50.932;6.934;2023-04-25T18:00:49;5.13;;;1.70;;
12812;SDS011;6471;50.932;6.934;2023-04-25T18:03:15;5.13;;;2.10;;
12812;SDS011;6471;50.932;6.934;2023-04-25T18:56:06;3.40;;;1.53;;
12812;SDS011;6471;50.932;6.934;2023-04-25T19:04:53;5.03;;;1.83;;
12812;SDS011;6471;50.932;6.934;2023-04-25T19:07:23;4.57;;;1.70;;
12812;SDS011;6471;50.932;6.934;2023-04-25T19:09:56;1.87;;;1.33;;
12812;SDS011;6471;50.932;6.934;2023-04-25T19:12:37;3.63;;;1.43;;
12812;SDS011;6471;50.932;6.934;2023-04-25T19:21:33;4.00;;;1.60;;
12812;SDS011;6471;50.932;6.934;2023-04-25T19:36:47;4.83;;;1.57;;
12812;SDS011;6471;50.932;6.934;2023-04-25T19:39:26;4.00;;;1.67;;
12812;SDS011;6471;50.932;6.934;2023-04-25T19:42:12;3.50;;;1.60;;
12812;SDS011;6471;50.932;6.934;2023-04-25T19:47:59;3.23;;;1.70;;
12812;SDS011;6471;50.932;6.934;2023-04-25T19:53:40;4.37;;;1.80;;
12812;SDS011;6471;50.932;6.934;2023-04-25T19:56:08;4.33;;;1.87;;
12812;SDS011;6471;50.932;6.934;2023-04-25T20:01:55;5.70;;;2.00;;
12812;SDS011;6471;50.932;6.934;2023-04-25T22:14:30;4.80;;;2.00;;
12812;SDS011;6471;50.932;6.934;2023-04-25T22:26:19;4.33;;;2.00;;
12812;SDS011;6471;50.932;6.934;2023-04-25T22:29:29;3.07;;;1.73;;
12812;SDS011;6471;50.932;6.934;2023-04-25T22:32:24;4.47;;;1.90;;
12812;SDS011;6471;50.932;6.934;2023-04-25T22:35:26;3.90;;;2.00;;
12812;SDS011;6471;50.932;6.934;2023-04-25T22:44:17;5.47;;;2.07;;
12812;SDS011;6471;50.932;6.934;2023-04-25T22:49:49;4.43;;;2.30;;
12812;SDS011;6471;50.932;6.934;2023-04-25T22:52:33;3.77;;;2.07;;
12812;SDS011;6471;50.932;6.934;2023-04-25T22:55:06;5.53;;;2.20;;
